Juan de Fuca Strait - west entrance: Past 24 Hour Conditions

 

La Perouse Bank - 46206

12:00 AM PST 21 January 2018Buoy position: 48.83N 126.0W
Disclaimer

This table is a summary of hourly weather conditions for the past 24 hours.
Please note that these observations might not always be representative of weather conditions over their associated marine area.

Date / Time
(PST)
Wind(knots) Wave height(m) Wave period(s) Pressure(kPa) Air tempC) Water tempC)
21 January 2018
0:00 SSE 31 gust 37 5.5 10.0 99.9 10 10
20 January 2018
23:00 S 31 gust 39 4.9 10.0 100.0 10 10
22:00 S 31 gust 39 4.7 8.0 100.1 10 10
21:00 S 31 gust 37 4.3 11.0 100.1 10 10
20:00 S 18 gust 21 4.4 8.0 100.3 9 10
19:00 SSW 19 gust 33 4.2 10.0 100.3 9 10
18:00 S 14 gust 16 4.2 9.0 100.5 8 10
17:00 SSW 16 gust 19 4.4 12.0 100.5 9 10
16:00 SSW 23 gust 33 4.7 12.0 100.5 9 10
15:00 S 29 gust 35 4.7 12.0 100.5 10 10
14:00 S 29 gust 39 4.2 12.0 100.6 9 10
13:00 SSE 29 gust 37 4.1 12.0 100.7 9 10
12:00 SSE 27 gust 37 3.7 12.0 100.8 9 10
11:00 SSE 23 gust 27 3.7 13.0 101.0 9 10
10:00 SSE 23 gust 29 3.6 13.0 101.0 9 10
9:00 SSE 19 gust 25 3.8 13.0 101.1 9 10
8:00 S 18 gust 21 4.4 13.0 101.1 9 10
7:00 SSE 12 gust 16 4.4 13.0 101.2 8 10
6:00 S 12 gust 14 4.2 13.0 101.2 9 10
5:00 WSW 10 gust 14 4.9 11.0 101.2 9 10
4:00 W 14 gust 19 4.9 14.0 101.2 8 10
3:00 WSW 16 gust 21 5.0 14.0 101.1 8 10
2:00 W 19 gust 25 5.6 15.0 101.1 8 9
1:00 W 16 gust 21 5.2 14.0 101.0 8 9
0:00 W 14 gust 19 5.3 15.0 101.0 8 9

Zoom-in to make a selection

Map of Pacific - Georgia Basin marine weather areas Tsawwassen Ferry Terminal Sentry Shoal - 46131 Halibut Bank - 46146 La Perouse Bank - 46206 Discovery Island Esquimalt Harbour Kelp Reefs Malahat Race Rocks Lightstation Saturna Island Sheringham Point University of Victoria Victoria Gonzales Victoria Int'l Airport Ballenas Islands Campbell River Airport Comox Airport Entrance Island Fanny Island Nanaimo Airport Sisters Islets Estevan Point Tofino Airport Grief Point Powell River Airport Sechelt Point Atkinson Sand Heads Lightstation Vancouver Harbour Vancouver Int'l Airport West Vancouver Port Alberni Howe Sound - Pam Rocks Squamish Airport
Legend:
buoy Buoy
land station Land Station

Pacific - Georgia Basin Area

Another Region

What we are doing

Date modified: